map of OKD home
OKD - Airport
Location
City:  Sapporo, Hokkaido, Japan
Name:Okadama Airport
ICAO:RJCO
IATA:OKD

Details
Type:Airport (Aerodrome, Airfield)
Use:Public/Civil, Military
Latitude:43°06'58"N (43.116139)
Longitude:141°22'49"E (141.380220)
Datum:WGS 1984
Elevation:25 ft (8 m)
Variation:9.59°W (WMM2015 magnetic declination)
-0.04° annual change
Runways:1
Longest:4920 × 148 ft (1500 × 45 m), paved

Time
Time Zone:UTC+9
Local Time:

Weather
METAR:RJCO 220300Z 31012KT 9999 FEW030 BKN050 M02/M10 Q1007

Related Locations
Nearby:
Farthest:CTQ: 11401 mi / 18348 km
Santa Vitória do Palmar [Aeropuerto Fernando Ferrari], RS, BR

Find:

   beyond  
but within

Other Information
Maps:
NOTAMs:
Links:
Sources:

  
  • flag of Japan
  • flag of Hokkaido
  • flag of Sapporo
  

Sectional Chart

Flight Planning
at skyvector.com

Satellite Image

Google Maps Satellite view

 

Copyright © 2004-2019 Karl L. Swartz. All rights reserved.
The Great Circle Mapper name and logo are trademarks of the Great Circle Mapper.
All other trademarks mentioned herein belong to their respective owners.
Please see credits for attibutions and further copyright information.

  Follow gcmap on Facebook Follow gcmap on Twitter Follow gcmap on Google+ GCmap on LinkedIn

hCard Microformat

Geo Microformat